Terminal Aerodrome Forecast
Issued by NWS Sioux Falls, SD

Home | Current Version | Previous Version | Graphics & Text | Print | Product List | Glossary On
Versions: 1 2 3 4 5 6 7 8 9 10 11 12 13 14 15
000
FTUS43 KFSD 222300
TAFFSD
TAF
KFSD 222320Z 2300/2324 14013G19KT P6SM BKN100
     FM230600 14017G26KT P6SM OVC100
     FM231400 14027G38KT P6SM OVC100=

USA.gov is the U.S. government's official web portal to all federal, state and local government web resources and services.